Time;durP1;ratioP1;P1;durP2;ratioP2;P2;SDS_P1;SDS_P2;PMS_P1;PMS_P2;Temp;Humidity;BMP_temperature;BMP_pressure;BME280_temperature;BME280_humidity;BME280_pressure;Samples;Min_cycle;Max_cycle;Signal;HPM_P1;HPM_P2
2022/07/18 00:01:54;;;;;;;2.70;1.45;;;26.90;35.30;;;;;;4995531;28;20040;-79
2022/07/18 00:04:19;;;;;;;2.75;1.15;;;26.80;35.50;;;;;;4996017;28;20034;-78
2022/07/18 00:06:45;;;;;;;1.83;1.05;;;26.80;35.50;;;;;;4994433;28;20033;-78
2022/07/18 00:09:11;;;;;;;2.20;1.25;;;26.80;35.70;;;;;;4995556;28;20516;-79
2022/07/18 00:11:37;;;;;;;1.83;1.30;;;26.80;35.30;;;;;;4994846;28;20022;-79
2022/07/18 00:14:03;;;;;;;2.13;1.30;;;26.80;35.70;;;;;;4995849;28;20545;-81
2022/07/18 00:16:29;;;;;;;3.80;1.40;;;26.70;35.70;;;;;;4996036;28;20595;-78
2022/07/18 00:18:55;;;;;;;2.17;1.38;;;26.70;35.70;;;;;;5010389;28;20177;-79
2022/07/18 00:21:23;;;;;;;3.28;1.20;;;26.60;35.30;;;;;;4995855;28;20048;-78
2022/07/18 00:23:48;;;;;;;1.73;1.20;;;26.60;35.40;;;;;;4994460;28;20034;-78
2022/07/18 00:26:14;;;;;;;5.13;1.42;;;26.60;35.60;;;;;;4994707;28;20042;-78
2022/07/18 00:28:40;;;;;;;2.55;1.38;;;26.60;35.30;;;;;;4995683;28;20025;-78
2022/07/18 00:31:05;;;;;;;2.85;1.50;;;26.50;35.50;;;;;;4994445;28;20022;-81
2022/07/18 00:33:31;;;;;;;2.25;1.20;;;26.60;36.00;;;;;;4995201;28;20058;-78
2022/07/18 00:35:56;;;;;;;2.47;1.50;;;26.50;35.80;;;;;;4995657;28;20033;-78
2022/07/18 00:38:30;;;;;;;2.95;1.40;;;26.50;35.70;;;;;;4996641;28;20504;-78
2022/07/18 00:40:55;;;;;;;2.35;1.33;;;26.40;35.40;;;;;;4999217;28;20033;-78
2022/07/18 00:43:21;;;;;;;1.88;1.33;;;26.40;35.70;;;;;;4999472;28;20030;-79
2022/07/18 00:45:48;;;;;;;2.17;1.38;;;26.40;35.70;;;;;;4998923;28;20026;-79
2022/07/18 00:48:14;;;;;;;4.07;1.27;;;26.40;35.90;;;;;;4998998;28;20497;-81
2022/07/18 00:50:42;;;;;;;2.53;1.33;;;26.30;35.90;;;;;;4999078;28;20038;-79
2022/07/18 00:53:10;;;;;;;2.40;1.70;;;26.30;35.70;;;;;;4999482;28;20026;-78
2022/07/18 00:55:43;;;;;;;1.83;1.30;;;26.30;35.60;;;;;;4999409;28;20465;-78
2022/07/18 00:58:09;;;;;;;1.90;1.25;;;26.30;35.40;;;;;;4998787;28;20409;-81
2022/07/18 01:03:19;;;;;;;1.90;1.42;;;26.20;35.80;;;;;;4999096;28;20050;-81
2022/07/18 01:05:45;;;;;;;2.53;1.38;;;26.20;35.60;;;;;;4998458;28;20066;-82
2022/07/18 01:08:11;;;;;;;4.15;1.65;;;26.20;35.70;;;;;;4999266;28;20037;-79
2022/07/18 01:10:36;;;;;;;2.80;1.45;;;26.20;35.90;;;;;;4998954;28;20031;-78
2022/07/18 01:13:02;;;;;;;5.13;1.30;;;26.10;36.30;;;;;;4998603;28;20037;-79
2022/07/18 01:15:28;;;;;;;4.07;1.40;;;26.10;35.50;;;;;;4999063;28;20073;-78
2022/07/18 01:17:54;;;;;;;1.50;1.20;;;26.10;35.70;;;;;;4998893;28;20053;-78
2022/07/18 01:20:19;;;;;;;2.15;1.48;;;26.10;35.70;;;;;;4998978;28;20041;-81
2022/07/18 01:22:45;;;;;;;2.10;1.30;;;26.00;36.60;;;;;;4996470;28;20030;-81
2022/07/18 01:25:11;;;;;;;2.35;1.30;;;26.00;35.90;;;;;;4998741;28;20592;-78
2022/07/18 01:27:38;;;;;;;2.88;1.50;;;26.00;35.90;;;;;;5013874;28;20022;-78
2022/07/18 01:30:07;;;;;;;3.42;1.35;;;25.90;36.50;;;;;;4998615;28;20098;-78
2022/07/18 01:32:32;;;;;;;3.63;1.45;;;26.00;36.50;;;;;;4998637;28;20082;-81
2022/07/18 01:34:58;;;;;;;1.60;1.20;;;25.90;36.10;;;;;;4998692;28;20575;-81
2022/07/18 01:37:24;;;;;;;2.88;1.20;;;25.90;36.30;;;;;;4998116;28;20464;-81
2022/07/18 01:39:49;;;;;;;2.70;1.60;;;25.90;36.30;;;;;;5013320;28;20034;-80
2022/07/18 01:42:16;;;;;;;2.85;1.42;;;25.90;36.30;;;;;;4997340;28;20033;-78
2022/07/18 01:44:42;;;;;;;2.17;1.48;;;25.80;36.60;;;;;;4997932;28;20034;-81
2022/07/18 01:47:09;;;;;;;3.83;1.30;;;25.80;36.80;;;;;;4998595;28;20082;-81
2022/07/18 01:49:35;;;;;;;2.30;1.40;;;25.80;36.30;;;;;;4996214;28;20026;-80
2022/07/18 01:52:01;;;;;;;2.30;1.33;;;25.80;36.60;;;;;;4998097;28;20033;-81
2022/07/18 01:54:30;;;;;;;1.95;1.30;;;25.80;36.60;;;;;;4997901;28;20039;-81
2022/07/18 01:56:57;;;;;;;2.00;1.50;;;25.80;36.70;;;;;;5012845;28;20026;-81
2022/07/18 01:59:23;;;;;;;4.10;1.45;;;25.80;36.70;;;;;;4998168;28;20032;-80
2022/07/18 02:01:49;;;;;;;4.35;1.50;;;25.70;36.80;;;;;;5007440;28;20034;-81
2022/07/18 02:04:15;;;;;;;2.38;1.45;;;25.70;37.00;;;;;;4996758;28;20446;-81
2022/07/18 02:06:41;;;;;;;1.80;1.40;;;25.60;36.90;;;;;;4998206;28;20034;-81
2022/07/18 02:09:07;;;;;;;2.42;1.70;;;25.60;36.90;;;;;;4996114;28;20493;-81
2022/07/18 02:11:34;;;;;;;2.60;1.17;;;25.60;37.00;;;;;;4997541;28;20539;-80
2022/07/18 02:14:00;;;;;;;3.20;1.20;;;25.60;37.00;;;;;;4997881;28;20034;-81
2022/07/18 02:16:26;;;;;;;2.13;1.45;;;25.50;37.00;;;;;;4996845;28;20169;-78
2022/07/18 02:18:52;;;;;;;1.80;1.50;;;25.50;36.90;;;;;;4997796;28;20033;-80
2022/07/18 02:21:20;;;;;;;3.85;1.58;;;25.50;37.20;;;;;;4997765;28;20041;-81
2022/07/18 02:23:46;;;;;;;2.90;1.30;;;25.40;37.10;;;;;;4997742;28;20464;-81
2022/07/18 02:26:12;;;;;;;2.78;1.35;;;25.40;37.30;;;;;;4997241;28;20030;-81
2022/07/18 02:28:38;;;;;;;2.35;1.42;;;25.40;37.10;;;;;;4997821;28;20026;-81
2022/07/18 02:31:05;;;;;;;3.65;1.63;;;25.40;37.30;;;;;;4995491;28;20026;-81
2022/07/18 02:33:32;;;;;;;1.60;1.20;;;25.40;37.50;;;;;;4997604;28;20086;-81
2022/07/18 02:35:58;;;;;;;2.30;1.40;;;25.30;38.50;;;;;;4997552;28;20036;-81
2022/07/18 02:38:26;;;;;;;3.47;1.30;;;25.30;37.80;;;;;;5011452;28;20123;-81
2022/07/18 02:40:52;;;;;;;2.40;1.48;;;25.30;37.60;;;;;;4997416;28;20417;-81
2022/07/18 02:43:18;;;;;;;3.30;1.42;;;25.30;38.00;;;;;;4996718;28;20041;-81
2022/07/18 02:45:43;;;;;;;3.13;1.42;;;25.20;38.20;;;;;;4997383;28;20443;-81
2022/07/18 02:48:09;;;;;;;3.63;1.50;;;25.20;38.10;;;;;;4996699;28;20056;-80
2022/07/18 02:50:35;;;;;;;2.60;1.55;;;25.10;39.20;;;;;;4995941;28;20117;-78
2022/07/18 02:53:00;;;;;;;1.90;1.33;;;25.10;38.40;;;;;;4996804;28;20037;-80
2022/07/18 02:55:26;;;;;;;2.72;1.63;;;25.00;38.30;;;;;;4996737;28;20022;-81
2022/07/18 02:57:52;;;;;;;3.53;1.30;;;25.00;38.50;;;;;;4995848;28;20033;-81
2022/07/18 03:00:18;;;;;;;2.90;1.42;;;25.00;38.40;;;;;;4996474;28;20034;-81
2022/07/18 03:02:44;;;;;;;2.42;1.67;;;24.90;38.60;;;;;;4997119;28;20485;-79
2022/07/18 03:05:11;;;;;;;2.00;1.55;;;24.90;39.00;;;;;;4996769;28;20066;-79
2022/07/18 03:07:38;;;;;;;3.00;1.60;;;24.90;38.60;;;;;;4996111;28;20031;-78
2022/07/18 03:10:04;;;;;;;2.95;1.33;;;24.90;38.50;;;;;;4996914;28;20030;-78
2022/07/18 03:12:30;;;;;;;2.53;1.85;;;24.90;38.60;;;;;;4996716;28;20034;-78
2022/07/18 03:14:56;;;;;;;1.92;1.38;;;24.90;38.60;;;;;;4996132;28;20402;-78
2022/07/18 03:17:21;;;;;;;2.90;1.35;;;24.80;38.80;;;;;;4996921;28;20108;-79
2022/07/18 03:19:47;;;;;;;1.83;1.42;;;24.80;39.30;;;;;;5008333;28;20132;-79
2022/07/18 03:22:13;;;;;;;1.90;1.60;;;24.80;39.30;;;;;;4977295;28;20037;-79
2022/07/18 03:24:38;;;;;;;3.13;1.58;;;24.80;39.30;;;;;;4976542;28;20117;-79
2022/07/18 03:27:04;;;;;;;1.92;1.48;;;24.80;39.30;;;;;;4992390;28;20058;-79
2022/07/18 03:29:30;;;;;;;2.17;1.52;;;24.80;39.30;;;;;;4977240;28;20034;-79
2022/07/18 03:31:55;;;;;;;2.15;1.40;;;24.70;39.10;;;;;;4994723;28;20441;-78
2022/07/18 03:34:21;;;;;;;2.42;1.52;;;24.70;39.70;;;;;;4996428;28;20030;-78
2022/07/18 03:36:46;;;;;;;2.45;1.50;;;24.60;39.70;;;;;;4996451;28;20370;-78
2022/07/18 03:39:12;;;;;;;2.83;1.60;;;24.60;39.90;;;;;;4995951;28;20117;-78
2022/07/18 03:41:39;;;;;;;3.25;1.70;;;24.60;40.50;;;;;;4996357;28;20038;-78
2022/07/18 03:44:05;;;;;;;4.10;1.80;;;24.60;39.30;;;;;;4995599;28;20137;-79
2022/07/18 03:46:32;;;;;;;3.05;1.70;;;24.60;39.30;;;;;;4995728;28;20134;-79
2022/07/18 03:48:58;;;;;;;2.00;1.50;;;24.50;39.20;;;;;;4996310;28;20022;-78
2022/07/18 03:51:24;;;;;;;2.20;1.58;;;24.50;39.50;;;;;;4995731;28;20037;-78
2022/07/18 03:53:50;;;;;;;2.53;1.73;;;24.50;39.80;;;;;;4996197;28;20035;-79
2022/07/18 03:56:16;;;;;;;4.55;1.80;;;24.50;39.80;;;;;;4994708;28;20061;-78
2022/07/18 03:58:42;;;;;;;2.88;1.73;;;24.50;39.40;;;;;;4995435;28;20110;-78
2022/07/18 04:01:07;;;;;;;2.38;1.60;;;24.40;39.50;;;;;;4995737;28;20522;-78
2022/07/18 04:03:36;;;;;;;3.80;1.77;;;24.40;39.70;;;;;;4995624;28;20031;-79
2022/07/18 04:06:01;;;;;;;3.20;1.35;;;24.30;39.50;;;;;;4995972;28;20049;-78
2022/07/18 04:08:27;;;;;;;4.57;1.55;;;24.30;39.40;;;;;;4996023;28;20027;-78
2022/07/18 04:10:53;;;;;;;2.50;1.58;;;24.30;39.40;;;;;;4995982;28;20497;-79
2022/07/18 04:13:18;;;;;;;2.30;1.50;;;24.30;39.40;;;;;;4994924;28;20029;-79
2022/07/18 04:15:44;;;;;;;1.77;1.27;;;24.30;39.60;;;;;;4995836;28;20055;-79
2022/07/18 04:18:10;;;;;;;4.00;1.60;;;24.30;39.60;;;;;;4995972;28;20061;-78
2022/07/18 04:20:38;;;;;;;2.67;1.63;;;24.30;39.50;;;;;;5010088;28;20065;-79
2022/07/18 04:23:06;;;;;;;2.17;1.63;;;24.30;39.60;;;;;;4995124;28;20028;-79
2022/07/18 04:25:40;;;;;;;3.05;1.80;;;24.30;39.60;;;;;;4995179;28;20030;-79
2022/07/18 04:28:07;;;;;;;2.05;1.70;;;24.20;39.30;;;;;;5010757;28;20022;-79
2022/07/18 04:30:34;;;;;;;4.15;1.77;;;24.30;39.70;;;;;;4995145;28;20416;-78
2022/07/18 04:33:05;;;;;;;3.35;1.63;;;24.20;39.90;;;;;;4994479;28;20038;-78
2022/07/18 04:35:31;;;;;;;1.85;1.35;;;24.20;39.50;;;;;;4994719;28;20057;-79
2022/07/18 04:37:57;;;;;;;6.38;1.73;;;24.10;39.70;;;;;;4995235;28;20604;-78
2022/07/18 04:40:23;;;;;;;2.63;1.70;;;24.20;39.70;;;;;;5006243;28;20026;-78
2022/07/18 04:42:49;;;;;;;3.05;1.55;;;24.20;40.00;;;;;;4995661;28;20395;-78
2022/07/18 04:45:15;;;;;;;2.13;1.50;;;24.20;39.80;;;;;;4995079;28;20472;-79
2022/07/18 04:47:41;;;;;;;2.42;1.77;;;24.20;40.00;;;;;;4995634;28;20030;-78
2022/07/18 04:50:07;;;;;;;4.30;1.85;;;24.20;39.70;;;;;;4995052;28;20118;-78
2022/07/18 04:52:38;;;;;;;1.88;1.67;;;24.20;39.90;;;;;;4995587;28;20118;-79
2022/07/18 04:55:05;;;;;;;2.75;1.67;;;24.20;39.60;;;;;;4995417;28;20030;-79
2022/07/18 04:57:30;;;;;;;3.22;2.08;;;24.20;39.60;;;;;;4994812;28;20027;-78
2022/07/18 04:59:56;;;;;;;3.25;1.33;;;24.20;39.40;;;;;;4995227;28;20026;-78
2022/07/18 05:02:21;;;;;;;3.85;1.33;;;24.20;40.20;;;;;;4995065;28;20023;-78
2022/07/18 05:04:47;;;;;;;2.38;1.67;;;24.20;39.40;;;;;;4995362;28;20065;-78
2022/07/18 05:07:13;;;;;;;3.05;1.60;;;24.30;39.80;;;;;;4995542;28;20102;-78
2022/07/18 05:09:38;;;;;;;3.72;1.55;;;24.20;39.40;;;;;;4995388;28;20033;-78
2022/07/18 05:12:04;;;;;;;5.05;2.28;;;24.30;39.40;;;;;;4994821;28;20034;-78
2022/07/18 05:14:30;;;;;;;3.38;1.98;;;24.30;39.80;;;;;;4994758;28;20512;-78
2022/07/18 05:16:55;;;;;;;6.03;1.88;;;24.30;39.30;;;;;;4993947;28;20570;-78
2022/07/18 05:19:21;;;;;;;3.85;1.40;;;24.30;39.40;;;;;;4994879;28;20049;-78
2022/07/18 05:21:47;;;;;;;3.65;2.05;;;24.30;39.90;;;;;;4995312;28;20105;-78
2022/07/18 05:24:13;;;;;;;3.55;1.73;;;24.40;39.60;;;;;;4995257;28;20027;-78
2022/07/18 05:26:39;;;;;;;3.92;1.50;;;24.30;39.50;;;;;;4997720;28;20022;-78
2022/07/18 05:29:04;;;;;;;2.65;1.75;;;24.30;39.30;;;;;;4998217;28;20039;-78
2022/07/18 05:31:30;;;;;;;3.58;1.85;;;24.40;39.60;;;;;;4998479;28;20069;-78
2022/07/18 05:33:56;;;;;;;2.38;1.50;;;24.40;39.50;;;;;;4997901;28;21213;-78
2022/07/18 05:36:21;;;;;;;3.53;1.83;;;24.40;39.80;;;;;;4998559;28;20022;-78
2022/07/18 05:38:47;;;;;;;3.90;1.50;;;24.40;39.70;;;;;;4998833;28;20464;-78
2022/07/18 05:41:13;;;;;;;4.03;1.50;;;24.50;40.00;;;;;;4998614;28;20029;-78
2022/07/18 05:43:39;;;;;;;4.57;1.90;;;24.50;39.60;;;;;;5012776;28;20057;-78
2022/07/18 05:46:05;;;;;;;5.65;2.00;;;24.60;39.50;;;;;;4998431;28;20397;-79
2022/07/18 05:48:31;;;;;;;4.40;2.08;;;24.60;39.50;;;;;;4998048;28;20485;-78
2022/07/18 05:50:57;;;;;;;4.28;1.90;;;24.60;40.00;;;;;;4996495;28;20045;-78
2022/07/18 05:53:22;;;;;;;2.72;1.83;;;24.60;40.30;;;;;;4996994;28;20464;-78
2022/07/18 05:55:48;;;;;;;3.72;1.80;;;24.70;39.40;;;;;;4998388;28;20029;-78
2022/07/18 05:58:14;;;;;;;3.15;1.90;;;24.70;39.30;;;;;;4997616;28;20489;-79
2022/07/18 06:00:39;;;;;;;4.65;1.70;;;24.70;39.70;;;;;;4998112;28;20058;-79
2022/07/18 06:03:05;;;;;;;3.67;1.75;;;24.80;39.40;;;;;;5012987;28;20504;-78
2022/07/18 06:05:30;;;;;;;2.78;1.70;;;24.80;39.50;;;;;;4998107;28;20046;-78
2022/07/18 06:07:57;;;;;;;2.50;1.75;;;24.80;39.40;;;;;;4997584;28;20018;-78
2022/07/18 06:10:25;;;;;;;3.65;1.77;;;24.90;39.50;;;;;;4996415;28;20053;-79
2022/07/18 06:12:51;;;;;;;2.78;1.60;;;24.90;39.70;;;;;;4997839;28;20101;-78
2022/07/18 06:15:17;;;;;;;4.00;2.05;;;25.00;40.10;;;;;;4997678;28;20058;-78
2022/07/18 06:17:43;;;;;;;2.58;1.65;;;25.00;41.10;;;;;;4997691;28;20022;-79
2022/07/18 06:20:09;;;;;;;4.07;1.92;;;25.00;40.00;;;;;;4997944;28;20038;-78
2022/07/18 06:22:36;;;;;;;5.43;1.92;;;25.00;40.50;;;;;;4997794;28;20026;-78
2022/07/18 06:25:04;;;;;;;2.75;1.73;;;25.10;40.50;;;;;;5008939;28;20034;-78
2022/07/18 06:27:29;;;;;;;3.05;2.38;;;25.10;40.50;;;;;;4981402;28;20019;-78
2022/07/18 06:29:55;;;;;;;1.60;1.25;;;25.20;40.40;;;;;;4997114;28;20085;-78
2022/07/18 06:32:21;;;;;;;4.05;1.60;;;25.20;40.60;;;;;;4996012;28;20086;-78
2022/07/18 06:34:46;;;;;;;2.90;1.80;;;25.30;39.90;;;;;;4997094;28;20030;-78
2022/07/18 06:37:12;;;;;;;4.55;1.70;;;25.30;39.80;;;;;;4997220;28;20022;-79
2022/07/18 06:39:38;;;;;;;2.70;2.05;;;25.30;39.90;;;;;;4997481;28;20061;-79
2022/07/18 06:42:03;;;;;;;2.60;1.58;;;25.30;40.10;;;;;;4996688;28;20098;-79
2022/07/18 06:44:29;;;;;;;4.53;1.83;;;25.30;39.70;;;;;;4997338;28;20034;-78
2022/07/18 06:46:57;;;;;;;4.75;1.60;;;25.40;40.10;;;;;;4996744;28;20022;-79
2022/07/18 06:49:25;;;;;;;2.85;1.90;;;25.40;40.10;;;;;;4996718;28;20030;-78
2022/07/18 06:51:50;;;;;;;2.92;1.80;;;25.50;40.10;;;;;;4997331;28;20022;-79
2022/07/18 06:54:16;;;;;;;5.05;1.40;;;25.60;40.20;;;;;;4997323;28;20026;-79
2022/07/18 06:56:42;;;;;;;6.47;1.80;;;25.70;40.30;;;;;;4996530;28;20034;-78
2022/07/18 06:59:08;;;;;;;4.60;2.03;;;25.70;40.40;;;;;;4996735;28;20113;-79
2022/07/18 07:01:33;;;;;;;2.95;1.70;;;25.80;40.60;;;;;;4996686;28;20445;-79
2022/07/18 07:03:59;;;;;;;2.28;1.60;;;25.80;39.90;;;;;;4994737;28;20409;-78
2022/07/18 07:06:25;;;;;;;3.13;1.83;;;25.80;40.30;;;;;;4995638;28;20022;-79
2022/07/18 07:08:51;;;;;;;4.30;2.03;;;26.00;39.90;;;;;;4996586;28;20033;-79
2022/07/18 07:11:16;;;;;;;3.53;1.75;;;26.20;39.50;;;;;;4995595;28;20066;-79
2022/07/18 07:13:42;;;;;;;2.80;1.45;;;26.30;39.30;;;;;;4995588;28;20033;-79
2022/07/18 07:16:08;;;;;;;4.30;1.85;;;26.40;39.30;;;;;;4994716;28;20424;-79
2022/07/18 07:18:34;;;;;;;2.22;1.70;;;26.50;39.20;;;;;;4996396;28;20077;-79
2022/07/18 07:20:59;;;;;;;2.50;1.38;;;26.70;39.40;;;;;;5007980;28;20089;-79
2022/07/18 07:23:26;;;;;;;5.60;1.80;;;26.80;39.50;;;;;;4977305;28;20687;-79
2022/07/18 07:25:51;;;;;;;5.25;1.70;;;27.10;38.90;;;;;;4977211;28;20574;-79
2022/07/18 07:28:18;;;;;;;4.93;2.10;;;27.50;38.60;;;;;;4983098;28;20057;-79
2022/07/18 07:30:44;;;;;;;6.18;1.70;;;28.80;36.10;;;;;;4996641;28;20031;-80
2022/07/18 07:33:10;;;;;;;3.47;1.42;;;29.80;35.30;;;;;;4995240;28;20081;-80
2022/07/18 07:35:36;;;;;;;4.68;1.60;;;31.70;32.00;;;;;;4995355;28;20053;-80
2022/07/18 07:38:01;;;;;;;3.40;1.75;;;33.60;29.90;;;;;;4995468;28;20570;-81
2022/07/18 07:40:28;;;;;;;2.45;1.55;;;34.90;27.20;;;;;;5010150;28;20489;-81
2022/07/18 07:43:09;;;;;;;4.25;1.48;;;36.00;26.20;;;;;;4996265;28;20101;-81
2022/07/18 07:45:35;;;;;;;3.58;1.70;;;36.80;24.60;;;;;;4995219;28;20069;-81
2022/07/18 07:48:01;;;;;;;2.17;1.30;;;37.70;23.60;;;;;;4995265;28;20029;-81
2022/07/18 07:50:27;;;;;;;4.85;1.60;;;38.40;23.70;;;;;;5011465;28;20026;-81
2022/07/18 07:52:53;;;;;;;7.07;1.63;;;39.00;23.10;;;;;;4996298;28;20034;-81
2022/07/18 07:55:19;;;;;;;3.28;1.90;;;39.70;22.50;;;;;;5011121;28;20026;-81
2022/07/18 07:57:44;;;;;;;3.75;1.42;;;39.70;21.80;;;;;;4994237;28;20030;-81
2022/07/18 08:00:10;;;;;;;4.18;1.40;;;39.70;21.70;;;;;;4996028;28;20584;-81
2022/07/18 08:02:36;;;;;;;3.30;1.40;;;39.30;20.70;;;;;;4996025;28;20086;-81
2022/07/18 08:05:03;;;;;;;5.38;1.60;;;39.90;21.10;;;;;;4996006;28;20030;-81
2022/07/18 08:07:29;;;;;;;3.92;1.48;;;39.80;20.90;;;;;;4995818;28;20034;-81
2022/07/18 08:09:54;;;;;;;2.78;1.40;;;39.70;21.00;;;;;;4995519;28;20023;-80
2022/07/18 08:12:20;;;;;;;2.72;1.48;;;39.60;20.90;;;;;;4992102;28;20490;-80
2022/07/18 08:14:46;;;;;;;7.10;1.40;;;39.30;20.50;;;;;;4976348;28;20046;-81
2022/07/18 08:17:11;;;;;;;2.90;1.50;;;39.40;20.30;;;;;;4985411;28;20082;-81
2022/07/18 08:19:37;;;;;;;2.70;1.52;;;39.80;20.70;;;;;;4995409;28;20500;-80
2022/07/18 08:22:03;;;;;;;3.33;1.40;;;40.60;20.40;;;;;;4995832;28;20397;-81
2022/07/18 08:24:29;;;;;;;2.95;1.38;;;40.40;19.70;;;;;;5010820;28;20072;-80
2022/07/18 08:26:54;;;;;;;3.38;1.42;;;40.60;19.50;;;;;;5010442;28;20109;-81
2022/07/18 08:29:20;;;;;;;4.07;1.45;;;40.90;19.90;;;;;;4995429;28;20397;-81
2022/07/18 08:31:46;;;;;;;4.15;1.50;;;41.30;19.20;;;;;;4976247;28;20035;-81
2022/07/18 08:34:11;;;;;;;7.10;1.38;;;41.30;19.10;;;;;;4975826;28;20061;-81
2022/07/18 08:36:37;;;;;;;2.10;1.38;;;41.70;18.80;;;;;;4976248;28;20027;-81
2022/07/18 08:39:03;;;;;;;5.65;1.58;;;41.80;18.70;;;;;;4989591;28;20022;-80
2022/07/18 08:41:29;;;;;;;3.08;1.27;;;42.20;18.80;;;;;;4995153;28;20031;-80
2022/07/18 08:43:55;;;;;;;5.80;1.52;;;42.50;18.10;;;;;;4994299;28;20109;-81
2022/07/18 08:46:22;;;;;;;1.92;1.20;;;42.90;18.10;;;;;;4995045;28;20066;-81
2022/07/18 08:48:49;;;;;;;6.13;1.45;;;42.70;17.90;;;;;;5010984;28;20022;-81
2022/07/18 08:51:15;;;;;;;3.38;1.42;;;42.90;17.80;;;;;;4993976;28;20311;-81
2022/07/18 08:53:40;;;;;;;2.03;1.25;;;43.50;17.70;;;;;;5010321;28;20063;-81
2022/07/18 08:56:06;;;;;;;2.25;1.10;;;43.00;17.50;;;;;;4994894;28;20038;-81
2022/07/18 08:58:32;;;;;;;4.72;1.60;;;42.90;17.30;;;;;;4994411;28;20513;-81
2022/07/18 09:00:59;;;;;;;3.30;1.48;;;43.30;17.70;;;;;;5006186;28;20049;-81
2022/07/18 09:03:25;;;;;;;1.75;1.50;;;43.60;17.00;;;;;;4998694;28;20038;-81
2022/07/18 09:06:10;;;;;;;2.03;1.33;;;43.60;17.20;;;;;;4999348;28;20052;-81
2022/07/18 09:08:38;;;;;;;2.80;1.27;;;44.20;17.10;;;;;;4999169;28;20050;-81
2022/07/18 09:11:10;;;;;;;2.05;1.38;;;43.90;16.50;;;;;;4996840;28;20038;-81
2022/07/18 09:13:37;;;;;;;5.13;1.60;;;43.20;16.80;;;;;;4998670;28;20030;-81
2022/07/18 09:16:05;;;;;;;2.58;1.35;;;43.60;17.00;;;;;;4997582;28;20517;-81
2022/07/18 09:18:38;;;;;;;2.00;1.15;;;44.40;17.60;;;;;;4998947;28;20030;-80
2022/07/18 09:21:10;;;;;;;2.47;1.70;;;44.80;16.00;;;;;;4998393;28;20600;-80
2022/07/18 09:23:38;;;;;;;2.45;1.58;;;44.50;16.40;;;;;;4998863;28;20104;-80
2022/07/18 09:26:05;;;;;;;4.60;1.42;;;44.30;16.30;;;;;;4997607;28;20081;-80
2022/07/18 09:28:52;;;;;;;4.50;1.63;;;44.00;16.10;;;;;;4997774;28;20027;-80
2022/07/18 09:31:22;;;;;;;;;;;43.70;16.00;;;;;;4997680;28;20036;-80
2022/07/18 09:33:53;;;;;;;2.97;1.58;;;43.90;15.90;;;;;;4998982;28;19912;-80
2022/07/18 09:36:19;;;;;;;2.88;1.30;;;43.60;15.80;;;;;;4998396;28;20026;-80
2022/07/18 09:38:44;;;;;;;2.15;1.15;;;43.70;15.60;;;;;;4998679;28;20089;-80
2022/07/18 09:41:11;;;;;;;2.67;1.10;;;43.40;16.00;;;;;;4998252;28;20536;-80
2022/07/18 09:43:38;;;;;;;2.47;1.33;;;43.40;16.00;;;;;;4998225;28;20084;-81
2022/07/18 09:46:05;;;;;;;4.50;1.45;;;43.60;15.90;;;;;;4996878;28;20060;-80
2022/07/18 09:48:31;;;;;;;3.57;1.50;;;44.20;16.00;;;;;;4996956;28;20493;-80
2022/07/18 09:51:05;;;;;;;5.43;1.38;;;44.40;15.60;;;;;;4998421;28;20023;-80
2022/07/18 09:53:33;;;;;;;2.55;1.30;;;44.40;15.10;;;;;;4996497;28;20400;-80
2022/07/18 09:56:04;;;;;;;2.78;1.15;;;44.10;15.20;;;;;;5013210;28;20022;-80
2022/07/18 09:58:35;;;;;;;3.75;1.60;;;44.70;15.40;;;;;;4997979;28;20456;-83
2022/07/18 10:01:02;;;;;;;2.95;1.30;;;44.40;15.10;;;;;;4998311;28;20033;-80
2022/07/18 10:03:29;;;;;;;1.27;1.00;;;44.10;15.60;;;;;;5008793;28;20035;-80
2022/07/18 10:05:57;;;;;;;3.70;1.23;;;44.20;15.70;;;;;;4978610;28;20050;-80
2022/07/18 10:08:25;;;;;;;4.25;1.50;;;44.00;15.50;;;;;;4990285;28;20061;-80
2022/07/18 10:10:52;;;;;;;;;;;44.00;14.90;;;;;;4997919;28;20026;-80
2022/07/18 10:13:19;;;;;;;3.20;1.02;;;43.80;15.40;;;;;;4997291;28;19960;-80
2022/07/18 10:15:47;;;;;;;3.22;1.63;;;43.30;13.90;;;;;;4997378;28;20046;-80
2022/07/18 10:18:13;;;;;;;;;;;43.80;14.50;;;;;;4998282;28;20101;-80
2022/07/18 10:20:44;;;;;;;1.45;1.08;;;43.70;14.40;;;;;;4997845;28;19913;-83
2022/07/18 10:23:18;;;;;;;3.70;1.20;;;43.70;14.50;;;;;;4995861;28;20026;-81
2022/07/18 10:25:44;;;;;;;2.65;1.17;;;43.90;15.20;;;;;;4997731;28;20019;-80
2022/07/18 10:28:12;;;;;;;2.47;1.10;;;43.80;15.80;;;;;;4997767;28;20477;-80
2022/07/18 10:30:40;;;;;;;2.22;0.98;;;44.20;15.60;;;;;;4996812;28;20027;-80
2022/07/18 10:33:54;;;;;;;4.05;1.08;;;44.60;16.30;;;;;;4997216;28;20022;-80
2022/07/18 10:36:22;;;;;;;3.88;1.58;;;44.30;14.90;;;;;;4992227;28;20048;-80
2022/07/18 10:39:07;;;;;;;2.53;1.00;;;44.20;15.70;;;;;;4997028;28;20018;-80
2022/07/18 10:41:39;;;;;;;1.65;0.80;;;43.80;14.30;;;;;;4997408;28;20429;-80
2022/07/18 10:44:26;;;;;;;1.30;0.80;;;43.10;15.40;;;;;;5011932;28;20591;-80
2022/07/18 10:47:04;;;;;;;3.67;1.10;;;42.40;16.10;;;;;;5012722;28;20018;-81
2022/07/18 10:49:58;;;;;;;1.92;0.70;;;41.60;15.70;;;;;;4996998;28;20041;-80
2022/07/18 10:52:27;;;;;;;1.63;1.17;;;40.90;17.20;;;;;;5012611;28;20389;-80
2022/07/18 10:55:05;;;;;;;2.22;1.13;;;40.20;17.50;;;;;;5009004;28;20035;-80
2022/07/18 10:57:34;;;;;;;3.08;1.20;;;39.90;18.40;;;;;;4983611;28;20034;-80
2022/07/18 11:00:13;;;;;;;1.50;0.70;;;39.80;17.10;;;;;;4997043;28;20109;-83
2022/07/18 11:02:38;;;;;;;;;;;39.30;16.40;;;;;;4997104;28;20397;-83
2022/07/18 11:05:24;;;;;;;3.88;0.77;;;39.10;16.70;;;;;;4996790;28;20032;-83
2022/07/18 11:07:59;;;;;;;1.00;0.60;;;38.90;17.10;;;;;;4997050;28;20031;-83
2022/07/18 11:13:43;;;;;;;0.90;0.40;;;38.80;16.10;;;;;;4996453;28;20038;-82
2022/07/18 11:16:25;;;;;;;2.47;0.85;;;38.70;16.70;;;;;;4998507;28;20457;-81
2022/07/18 11:18:51;;;;;;;2.67;0.73;;;38.70;16.40;;;;;;4996646;28;20030;-81
2022/07/18 11:21:28;;;;;;;2.58;0.95;;;38.70;17.20;;;;;;4996226;28;20022;-81
2022/07/18 11:24:07;;;;;;;1.65;0.80;;;38.60;16.50;;;;;;4995667;28;20042;-81
2022/07/18 11:26:37;;;;;;;1.75;0.82;;;38.60;16.50;;;;;;4996093;28;20072;-81
2022/07/18 11:29:05;;;;;;;1.98;0.70;;;38.70;16.70;;;;;;5011939;28;20125;-82
2022/07/18 11:31:32;;;;;;;1.73;0.88;;;38.60;16.20;;;;;;4996628;28;20081;-81
2022/07/18 11:34:00;;;;;;;1.52;0.88;;;38.70;17.00;;;;;;4996045;28;20031;-81
2022/07/18 11:36:31;;;;;;;;;;;38.60;16.60;;;;;;4994903;28;20114;-81
2022/07/18 11:38:59;;;;;;;3.53;1.00;;;38.70;17.10;;;;;;4996389;28;19921;-81
2022/07/18 11:41:25;;;;;;;1.52;0.90;;;38.80;16.70;;;;;;5011330;28;20038;-82
2022/07/18 11:43:53;;;;;;;2.17;0.98;;;38.80;17.00;;;;;;4995696;28;20045;-82
2022/07/18 11:46:20;;;;;;;1.40;0.90;;;38.90;17.70;;;;;;4996643;28;20034;-81
2022/07/18 11:48:47;;;;;;;3.78;0.88;;;38.90;16.40;;;;;;4996579;28;20019;-83
2022/07/18 11:51:15;;;;;;;3.17;0.70;;;38.90;17.60;;;;;;4996221;28;20022;-83
2022/07/18 11:53:52;;;;;;;3.75;1.27;;;38.80;16.80;;;;;;4995245;28;20031;-81
2022/07/18 11:56:19;;;;;;;1.58;0.80;;;38.80;17.20;;;;;;4996037;28;20039;-81
2022/07/18 11:58:46;;;;;;;3.03;1.10;;;38.80;17.20;;;;;;4994220;28;20023;-81
2022/07/18 12:01:12;;;;;;;2.45;0.93;;;39.10;17.90;;;;;;5001674;28;20065;-82
2022/07/18 12:03:47;;;;;;;4.40;1.00;;;39.10;18.20;;;;;;4996044;28;20027;-81
2022/07/18 12:06:22;;;;;;;6.25;1.45;;;39.00;17.10;;;;;;5007524;28;20046;-81
2022/07/18 12:08:49;;;;;;;3.03;1.10;;;38.90;17.40;;;;;;4976665;28;20023;-83
2022/07/18 12:11:20;;;;;;;4.07;1.00;;;38.80;17.50;;;;;;5007682;28;20045;-81
2022/07/18 12:13:50;;;;;;;4.13;0.90;;;38.90;17.80;;;;;;4996033;28;20023;-81
2022/07/18 12:16:35;;;;;;;4.15;1.30;;;39.00;17.20;;;;;;5010419;28;20078;-81
2022/07/18 12:19:13;;;;;;;3.92;1.05;;;38.90;17.30;;;;;;4991578;28;20120;-81
2022/07/18 12:21:54;;;;;;;3.95;0.90;;;39.00;18.20;;;;;;4991355;28;20142;-81
2022/07/18 12:24:27;;;;;;;2.83;0.88;;;39.00;17.90;;;;;;5001643;28;20035;-81
2022/07/18 12:27:22;;;;;;;4.47;1.38;;;38.90;17.80;;;;;;4980669;28;20022;-81
2022/07/18 12:30:32;;;;;;;3.50;1.30;;;38.90;18.30;;;;;;4994346;28;20042;-81
2022/07/18 12:33:01;;;;;;;4.05;0.95;;;39.10;19.00;;;;;;4993175;28;20038;-81
2022/07/18 12:35:27;;;;;;;;;;;39.10;17.50;;;;;;5013454;28;20038;-80
2022/07/18 12:37:57;;;;;;;4.85;1.60;;;39.20;16.90;;;;;;4999914;28;19910;-81
2022/07/18 12:40:23;;;;;;;2.42;1.00;;;39.10;17.50;;;;;;4999718;28;20113;-81
2022/07/18 12:42:49;;;;;;;3.95;1.85;;;39.20;18.00;;;;;;4999161;28;20030;-81
2022/07/18 12:45:16;;;;;;;2.53;1.00;;;39.30;17.70;;;;;;4999777;28;20026;-81
2022/07/18 12:47:41;;;;;;;2.75;1.63;;;39.40;17.40;;;;;;4997861;28;20102;-83
2022/07/18 12:50:07;;;;;;;2.00;1.35;;;39.40;17.70;;;;;;4998823;28;20804;-81
2022/07/18 12:52:34;;;;;;;2.05;1.23;;;39.40;16.80;;;;;;4998248;28;20025;-81
2022/07/18 12:54:59;;;;;;;2.42;1.10;;;39.40;16.70;;;;;;4999750;28;20030;-81
2022/07/18 12:57:26;;;;;;;4.75;1.40;;;39.40;17.30;;;;;;4998803;28;20057;-81